sensor_id;sensor_type;location;lat;lon;timestamp;pressure;altitude;pressure_sealevel;temperature;humidity
17072;BME280;7731;50.720;6.912;2023-12-14T00:01:20;99120.75;;;6.48;100.00
17072;BME280;7731;50.720;6.912;2023-12-14T00:03:50;99124.72;;;6.36;100.00
17072;BME280;7731;50.720;6.912;2023-12-14T00:06:21;99128.56;;;6.45;100.00
17072;BME280;7731;50.720;6.912;2023-12-14T00:08:51;99129.75;;;6.38;100.00
17072;BME280;7731;50.720;6.912;2023-12-14T00:11:24;99137.09;;;6.44;100.00
17072;BME280;7731;50.720;6.912;2023-12-14T00:13:54;99141.31;;;6.45;100.00
17072;BME280;7731;50.720;6.912;2023-12-14T00:16:25;99150.00;;;6.41;100.00
17072;BME280;7731;50.720;6.912;2023-12-14T00:18:55;99151.97;;;6.36;100.00
17072;BME280;7731;50.720;6.912;2023-12-14T00:21:26;99147.69;;;6.36;100.00
17072;BME280;7731;50.720;6.912;2023-12-14T00:23:56;99147.59;;;6.38;100.00
17072;BME280;7731;50.720;6.912;2023-12-14T00:26:29;99151.47;;;6.28;100.00
17072;BME280;7731;50.720;6.912;2023-12-14T00:28:59;99154.66;;;6.33;100.00
17072;BME280;7731;50.720;6.912;2023-12-14T00:31:29;99154.91;;;6.26;100.00
17072;BME280;7731;50.720;6.912;2023-12-14T00:34:00;99156.78;;;6.42;100.00
17072;BME280;7731;50.720;6.912;2023-12-14T00:36:33;99163.94;;;6.34;100.00
17072;BME280;7731;50.720;6.912;2023-12-14T00:39:04;99168.25;;;6.51;100.00
17072;BME280;7731;50.720;6.912;2023-12-14T00:41:37;99168.59;;;6.43;100.00
17072;BME280;7731;50.720;6.912;2023-12-14T00:44:08;99168.91;;;6.37;100.00
17072;BME280;7731;50.720;6.912;2023-12-14T00:46:38;99172.09;;;6.42;100.00
17072;BME280;7731;50.720;6.912;2023-12-14T00:49:09;99176.13;;;6.46;100.00
17072;BME280;7731;50.720;6.912;2023-12-14T00:51:39;99187.63;;;6.55;100.00
17072;BME280;7731;50.720;6.912;2023-12-14T00:54:09;99192.78;;;6.53;100.00
17072;BME280;7731;50.720;6.912;2023-12-14T00:56:42;99192.94;;;6.50;100.00
17072;BME280;7731;50.720;6.912;2023-12-14T00:59:15;99195.50;;;6.85;100.00
17072;BME280;7731;50.720;6.912;2023-12-14T01:01:45;99198.38;;;6.79;100.00
17072;BME280;7731;50.720;6.912;2023-12-14T01:04:16;99206.16;;;6.93;100.00
17072;BME280;7731;50.720;6.912;2023-12-14T01:06:46;99213.47;;;6.84;100.00
17072;BME280;7731;50.720;6.912;2023-12-14T01:09:17;99224.16;;;7.08;100.00
17072;BME280;7731;50.720;6.912;2023-12-14T01:11:52;99222.91;;;6.99;100.00
17072;BME280;7731;50.720;6.912;2023-12-14T01:14:22;99219.44;;;7.18;100.00
17072;BME280;7731;50.720;6.912;2023-12-14T01:16:53;99230.78;;;7.12;100.00
17072;BME280;7731;50.720;6.912;2023-12-14T01:19:23;99230.72;;;7.13;100.00
17072;BME280;7731;50.720;6.912;2023-12-14T01:21:54;99231.75;;;7.09;100.00
17072;BME280;7731;50.720;6.912;2023-12-14T01:24:25;99226.66;;;6.92;100.00
17072;BME280;7731;50.720;6.912;2023-12-14T01:26:58;99243.19;;;7.02;100.00
17072;BME280;7731;50.720;6.912;2023-12-14T01:29:28;99247.63;;;7.16;100.00
17072;BME280;7731;50.720;6.912;2023-12-14T01:31:58;99259.78;;;7.28;100.00
17072;BME280;7731;50.720;6.912;2023-12-14T01:34:29;99265.19;;;7.40;100.00
17072;BME280;7731;50.720;6.912;2023-12-14T01:36:59;99262.84;;;7.35;100.00
17072;BME280;7731;50.720;6.912;2023-12-14T01:39:30;99270.53;;;7.18;100.00
17072;BME280;7731;50.720;6.912;2023-12-14T01:42:03;99268.88;;;7.17;100.00
17072;BME280;7731;50.720;6.912;2023-12-14T01:44:34;99275.09;;;7.11;100.00
17072;BME280;7731;50.720;6.912;2023-12-14T01:47:04;99280.75;;;7.18;100.00
17072;BME280;7731;50.720;6.912;2023-12-14T01:49:35;99288.19;;;7.22;100.00
17072;BME280;7731;50.720;6.912;2023-12-14T01:52:06;99291.41;;;7.26;100.00
17072;BME280;7731;50.720;6.912;2023-12-14T01:54:36;99291.88;;;6.99;100.00
17072;BME280;7731;50.720;6.912;2023-12-14T01:57:09;99296.44;;;6.92;100.00
17072;BME280;7731;50.720;6.912;2023-12-14T01:59:41;99306.63;;;6.92;100.00
17072;BME280;7731;50.720;6.912;2023-12-14T02:02:11;99317.16;;;6.86;100.00
17072;BME280;7731;50.720;6.912;2023-12-14T02:04:42;99325.72;;;6.85;100.00
17072;BME280;7731;50.720;6.912;2023-12-14T02:07:12;99327.50;;;6.83;100.00
17072;BME280;7731;50.720;6.912;2023-12-14T02:09:43;99328.28;;;6.85;100.00
17072;BME280;7731;50.720;6.912;2023-12-14T02:12:16;99326.03;;;7.14;100.00
17072;BME280;7731;50.720;6.912;2023-12-14T02:14:48;99332.47;;;6.86;100.00
17072;BME280;7731;50.720;6.912;2023-12-14T02:17:21;99341.19;;;6.82;100.00
17072;BME280;7731;50.720;6.912;2023-12-14T02:19:51;99338.66;;;7.00;100.00
17072;BME280;7731;50.720;6.912;2023-12-14T02:22:21;99341.19;;;6.82;100.00
17072;BME280;7731;50.720;6.912;2023-12-14T02:24:56;99351.41;;;6.82;100.00
17072;BME280;7731;50.720;6.912;2023-12-14T02:27:26;99346.16;;;6.85;100.00
17072;BME280;7731;50.720;6.912;2023-12-14T02:29:57;99347.50;;;6.92;100.00
17072;BME280;7731;50.720;6.912;2023-12-14T02:32:27;99347.63;;;6.89;100.00
17072;BME280;7731;50.720;6.912;2023-12-14T02:34:58;99346.28;;;6.82;100.00
17072;BME280;7731;50.720;6.912;2023-12-14T02:37:28;99354.84;;;6.81;100.00
17072;BME280;7731;50.720;6.912;2023-12-14T02:40:06;99363.66;;;6.93;100.00
17072;BME280;7731;50.720;6.912;2023-12-14T02:42:36;99369.44;;;6.96;100.00
17072;BME280;7731;50.720;6.912;2023-12-14T02:45:10;99366.28;;;6.91;100.00
17072;BME280;7731;50.720;6.912;2023-12-14T02:47:40;99371.41;;;6.91;100.00
17072;BME280;7731;50.720;6.912;2023-12-14T02:50:11;99383.44;;;7.07;100.00
17072;BME280;7731;50.720;6.912;2023-12-14T02:52:44;99389.44;;;7.06;100.00
17072;BME280;7731;50.720;6.912;2023-12-14T02:55:17;99389.50;;;7.41;100.00
17072;BME280;7731;50.720;6.912;2023-12-14T02:57:47;99386.44;;;7.15;100.00
17072;BME280;7731;50.720;6.912;2023-12-14T03:00:18;99387.53;;;7.28;100.00
17072;BME280;7731;50.720;6.912;2023-12-14T03:02:49;99388.72;;;7.21;100.00
17072;BME280;7731;50.720;6.912;2023-12-14T03:05:19;99392.75;;;7.08;100.00
17072;BME280;7731;50.720;6.912;2023-12-14T03:07:49;99396.16;;;7.26;100.00
17072;BME280;7731;50.720;6.912;2023-12-14T03:10:22;99400.47;;;7.43;100.00
17072;BME280;7731;50.720;6.912;2023-12-14T03:12:53;99399.22;;;7.15;100.00
17072;BME280;7731;50.720;6.912;2023-12-14T03:15:23;99402.72;;;7.49;100.00
17072;BME280;7731;50.720;6.912;2023-12-14T03:17:53;99404.53;;;7.47;100.00
17072;BME280;7731;50.720;6.912;2023-12-14T03:20:23;99412.31;;;7.26;100.00
17072;BME280;7731;50.720;6.912;2023-12-14T03:22:54;99416.66;;;7.07;100.00
17072;BME280;7731;50.720;6.912;2023-12-14T03:25:27;99419.91;;;7.28;100.00
17072;BME280;7731;50.720;6.912;2023-12-14T03:27:58;99427.34;;;7.32;100.00
17072;BME280;7731;50.720;6.912;2023-12-14T03:30:29;99430.97;;;7.28;100.00
17072;BME280;7731;50.720;6.912;2023-12-14T03:32:59;99437.00;;;6.89;100.00
17072;BME280;7731;50.720;6.912;2023-12-14T03:35:29;99435.63;;;7.01;100.00
17072;BME280;7731;50.720;6.912;2023-12-14T03:38:04;99449.56;;;7.13;100.00
17072;BME280;7731;50.720;6.912;2023-12-14T03:40:37;99449.84;;;7.07;100.00
17072;BME280;7731;50.720;6.912;2023-12-14T03:43:10;99457.09;;;7.16;100.00
17072;BME280;7731;50.720;6.912;2023-12-14T03:45:41;99465.66;;;6.96;100.00
17072;BME280;7731;50.720;6.912;2023-12-14T03:48:12;99465.91;;;7.09;100.00
17072;BME280;7731;50.720;6.912;2023-12-14T03:50:42;99464.28;;;6.89;100.00
17072;BME280;7731;50.720;6.912;2023-12-14T03:53:13;99470.00;;;6.94;100.00
17072;BME280;7731;50.720;6.912;2023-12-14T03:55:46;99480.56;;;7.05;100.00
17072;BME280;7731;50.720;6.912;2023-12-14T03:58:19;99483.47;;;6.97;100.00
17072;BME280;7731;50.720;6.912;2023-12-14T04:00:50;99487.31;;;6.87;100.00
17072;BME280;7731;50.720;6.912;2023-12-14T04:03:20;99493.81;;;6.94;100.00
17072;BME280;7731;50.720;6.912;2023-12-14T04:05:52;99500.84;;;6.89;100.00
17072;BME280;7731;50.720;6.912;2023-12-14T04:08:22;99506.91;;;6.68;100.00
17072;BME280;7731;50.720;6.912;2023-12-14T04:10:57;99512.41;;;6.58;100.00
17072;BME280;7731;50.720;6.912;2023-12-14T04:13:27;99519.03;;;6.63;100.00
17072;BME280;7731;50.720;6.912;2023-12-14T04:15:57;99522.28;;;6.66;100.00
17072;BME280;7731;50.720;6.912;2023-12-14T04:18:28;99529.63;;;6.53;100.00
17072;BME280;7731;50.720;6.912;2023-12-14T04:20:58;99542.19;;;6.58;100.00
17072;BME280;7731;50.720;6.912;2023-12-14T04:23:29;99536.78;;;6.66;100.00
17072;BME280;7731;50.720;6.912;2023-12-14T04:26:05;99540.25;;;6.44;100.00
17072;BME280;7731;50.720;6.912;2023-12-14T04:28:36;99548.78;;;6.64;100.00
17072;BME280;7731;50.720;6.912;2023-12-14T04:31:07;99551.00;;;6.51;100.00
17072;BME280;7731;50.720;6.912;2023-12-14T04:33:37;99556.13;;;6.71;100.00
17072;BME280;7731;50.720;6.912;2023-12-14T04:36:10;99567.47;;;6.64;100.00
17072;BME280;7731;50.720;6.912;2023-12-14T04:38:40;99571.63;;;6.67;100.00
17072;BME280;7731;50.720;6.912;2023-12-14T04:41:16;99577.09;;;6.78;100.00
17072;BME280;7731;50.720;6.912;2023-12-14T04:43:49;99580.41;;;6.59;100.00
17072;BME280;7731;50.720;6.912;2023-12-14T04:46:19;99575.50;;;6.55;100.00
17072;BME280;7731;50.720;6.912;2023-12-14T04:48:49;99573.38;;;6.65;100.00
17072;BME280;7731;50.720;6.912;2023-12-14T04:51:20;99584.78;;;6.57;100.00
17072;BME280;7731;50.720;6.912;2023-12-14T04:53:50;99589.88;;;6.97;100.00
17072;BME280;7731;50.720;6.912;2023-12-14T04:56:23;99600.66;;;6.43;100.00
17072;BME280;7731;50.720;6.912;2023-12-14T04:58:53;99601.47;;;6.85;100.00
17072;BME280;7731;50.720;6.912;2023-12-14T05:01:24;99601.97;;;6.52;100.00
17072;BME280;7731;50.720;6.912;2023-12-14T05:03:59;99606.19;;;6.74;100.00
17072;BME280;7731;50.720;6.912;2023-12-14T05:06:30;99606.97;;;6.76;100.00
17072;BME280;7731;50.720;6.912;2023-12-14T05:09:02;99615.28;;;6.60;100.00
17072;BME280;7731;50.720;6.912;2023-12-14T05:11:36;99618.50;;;6.64;100.00
17072;BME280;7731;50.720;6.912;2023-12-14T05:14:07;99623.31;;;6.51;100.00
17072;BME280;7731;50.720;6.912;2023-12-14T05:16:39;99631.53;;;6.37;100.00
17072;BME280;7731;50.720;6.912;2023-12-14T05:19:12;99631.47;;;6.59;100.00
17072;BME280;7731;50.720;6.912;2023-12-14T05:21:42;99646.59;;;6.21;100.00
17072;BME280;7731;50.720;6.912;2023-12-14T05:24:13;99648.25;;;6.22;100.00
17072;BME280;7731;50.720;6.912;2023-12-14T05:26:46;99648.63;;;6.13;100.00
17072;BME280;7731;50.720;6.912;2023-12-14T05:29:16;99647.47;;;6.20;100.00
17072;BME280;7731;50.720;6.912;2023-12-14T05:31:51;99651.81;;;6.18;100.00
17072;BME280;7731;50.720;6.912;2023-12-14T05:34:23;99658.03;;;6.11;100.00
17072;BME280;7731;50.720;6.912;2023-12-14T05:36:54;99659.69;;;6.12;100.00
17072;BME280;7731;50.720;6.912;2023-12-14T05:39:24;99664.88;;;6.11;100.00
17072;BME280;7731;50.720;6.912;2023-12-14T05:41:57;99670.38;;;6.22;100.00
17072;BME280;7731;50.720;6.912;2023-12-14T05:44:28;99671.91;;;6.26;100.00
17072;BME280;7731;50.720;6.912;2023-12-14T05:47:01;99675.34;;;6.25;100.00
17072;BME280;7731;50.720;6.912;2023-12-14T05:49:31;99677.44;;;6.15;100.00
17072;BME280;7731;50.720;6.912;2023-12-14T05:52:02;99680.63;;;5.98;100.00
17072;BME280;7731;50.720;6.912;2023-12-14T05:54:32;99690.97;;;5.94;100.00
17072;BME280;7731;50.720;6.912;2023-12-14T05:57:05;99685.50;;;6.26;100.00
17072;BME280;7731;50.720;6.912;2023-12-14T05:59:35;99698.72;;;6.14;100.00
17072;BME280;7731;50.720;6.912;2023-12-14T06:02:06;99706.94;;;5.99;100.00
17072;BME280;7731;50.720;6.912;2023-12-14T06:04:36;99706.13;;;6.20;100.00
17072;BME280;7731;50.720;6.912;2023-12-14T06:07:11;99719.75;;;5.97;100.00
17072;BME280;7731;50.720;6.912;2023-12-14T06:09:45;99719.47;;;5.81;100.00
17072;BME280;7731;50.720;6.912;2023-12-14T06:12:17;99727.34;;;6.22;100.00
17072;BME280;7731;50.720;6.912;2023-12-14T06:14:50;99730.44;;;5.83;100.00
17072;BME280;7731;50.720;6.912;2023-12-14T06:17:20;99740.47;;;5.88;100.00
17072;BME280;7731;50.720;6.912;2023-12-14T06:19:54;99744.41;;;6.20;100.00
17072;BME280;7731;50.720;6.912;2023-12-14T06:22:24;99740.72;;;6.05;100.00
17072;BME280;7731;50.720;6.912;2023-12-14T06:24:54;99749.84;;;5.87;100.00
17072;BME280;7731;50.720;6.912;2023-12-14T06:27:28;99758.69;;;5.77;100.00
17072;BME280;7731;50.720;6.912;2023-12-14T06:29:59;99768.00;;;5.54;100.00
17072;BME280;7731;50.720;6.912;2023-12-14T06:32:31;99777.81;;;5.65;100.00
17072;BME280;7731;50.720;6.912;2023-12-14T06:35:04;99777.66;;;5.70;100.00
17072;BME280;7731;50.720;6.912;2023-12-14T06:37:34;99786.50;;;5.60;100.00
17072;BME280;7731;50.720;6.912;2023-12-14T06:40:08;99800.94;;;5.84;100.00
17072;BME280;7731;50.720;6.912;2023-12-14T06:42:41;99805.53;;;5.75;100.00
17072;BME280;7731;50.720;6.912;2023-12-14T06:45:11;99810.81;;;5.94;100.00
17072;BME280;7731;50.720;6.912;2023-12-14T06:47:42;99817.09;;;5.83;100.00
17072;BME280;7731;50.720;6.912;2023-12-14T06:50:14;99819.16;;;5.73;100.00
17072;BME280;7731;50.720;6.912;2023-12-14T06:52:45;99817.47;;;5.72;100.00
17072;BME280;7731;50.720;6.912;2023-12-14T06:55:15;99827.28;;;5.60;100.00
17072;BME280;7731;50.720;6.912;2023-12-14T06:57:48;99829.06;;;5.58;100.00
17072;BME280;7731;50.720;6.912;2023-12-14T07:00:21;99841.63;;;5.62;100.00
17072;BME280;7731;50.720;6.912;2023-12-14T07:02:51;99837.69;;;5.53;100.00
17072;BME280;7731;50.720;6.912;2023-12-14T07:05:21;99850.38;;;5.55;100.00
17072;BME280;7731;50.720;6.912;2023-12-14T07:07:52;99851.28;;;5.52;100.00
17072;BME280;7731;50.720;6.912;2023-12-14T07:10:25;99855.97;;;5.65;100.00
17072;BME280;7731;50.720;6.912;2023-12-14T07:12:58;99863.25;;;5.50;100.00
17072;BME280;7731;50.720;6.912;2023-12-14T07:15:29;99865.34;;;5.64;100.00
17072;BME280;7731;50.720;6.912;2023-12-14T07:17:59;99867.03;;;5.65;100.00
17072;BME280;7731;50.720;6.912;2023-12-14T07:20:32;99872.94;;;5.41;100.00
17072;BME280;7731;50.720;6.912;2023-12-14T07:23:02;99878.75;;;5.44;100.00
17072;BME280;7731;50.720;6.912;2023-12-14T07:25:33;99885.28;;;5.53;100.00
17072;BME280;7731;50.720;6.912;2023-12-14T07:28:05;99891.44;;;5.46;100.00
17072;BME280;7731;50.720;6.912;2023-12-14T07:30:36;99897.84;;;5.58;100.00
17072;BME280;7731;50.720;6.912;2023-12-14T07:33:06;99903.31;;;5.18;100.00
17072;BME280;7731;50.720;6.912;2023-12-14T07:35:40;99908.94;;;5.30;100.00
17072;BME280;7731;50.720;6.912;2023-12-14T07:38:10;99905.91;;;5.45;100.00
17072;BME280;7731;50.720;6.912;2023-12-14T07:40:43;99918.94;;;5.88;100.00
17072;BME280;7731;50.720;6.912;2023-12-14T07:43:17;99920.88;;;5.54;100.00
17072;BME280;7731;50.720;6.912;2023-12-14T07:45:47;99921.72;;;5.55;100.00
17072;BME280;7731;50.720;6.912;2023-12-14T07:48:17;99925.03;;;5.57;100.00
17072;BME280;7731;50.720;6.912;2023-12-14T07:50:48;99932.59;;;5.33;100.00
17072;BME280;7731;50.720;6.912;2023-12-14T07:53:19;99935.28;;;5.29;100.00
17072;BME280;7731;50.720;6.912;2023-12-14T07:55:50;99942.44;;;5.44;100.00
17072;BME280;7731;50.720;6.912;2023-12-14T07:58:23;99953.53;;;5.15;100.00
17072;BME280;7731;50.720;6.912;2023-12-14T08:00:55;99956.63;;;5.25;100.00
17072;BME280;7731;50.720;6.912;2023-12-14T08:03:26;99966.41;;;5.65;100.00
17072;BME280;7731;50.720;6.912;2023-12-14T08:05:56;99973.88;;;5.71;100.00
17072;BME280;7731;50.720;6.912;2023-12-14T08:08:27;99973.59;;;5.52;100.00
17072;BME280;7731;50.720;6.912;2023-12-14T08:10:57;99975.88;;;5.33;100.00
17072;BME280;7731;50.720;6.912;2023-12-14T08:13:30;99983.44;;;5.63;100.00
17072;BME280;7731;50.720;6.912;2023-12-14T08:16:01;99989.22;;;5.13;100.00
17072;BME280;7731;50.720;6.912;2023-12-14T08:18:35;99994.97;;;5.48;100.00
17072;BME280;7731;50.720;6.912;2023-12-14T08:21:06;99998.41;;;5.47;100.00
17072;BME280;7731;50.720;6.912;2023-12-14T08:23:39;100006.56;;;5.30;100.00
17072;BME280;7731;50.720;6.912;2023-12-14T08:26:10;100008.41;;;5.53;100.00
17072;BME280;7731;50.720;6.912;2023-12-14T08:28:43;100014.38;;;5.52;100.00
17072;BME280;7731;50.720;6.912;2023-12-14T08:31:14;100024.28;;;5.33;100.00
17072;BME280;7731;50.720;6.912;2023-12-14T08:33:45;100016.97;;;5.51;100.00
17072;BME280;7731;50.720;6.912;2023-12-14T08:36:19;100025.47;;;5.51;100.00
17072;BME280;7731;50.720;6.912;2023-12-14T08:38:50;100030.38;;;5.58;100.00
17072;BME280;7731;50.720;6.912;2023-12-14T08:41:20;100032.84;;;5.31;100.00
17072;BME280;7731;50.720;6.912;2023-12-14T08:43:55;100037.56;;;5.43;100.00
17072;BME280;7731;50.720;6.912;2023-12-14T08:46:25;100041.63;;;5.50;100.00
17072;BME280;7731;50.720;6.912;2023-12-14T08:48:58;100043.22;;;5.54;100.00
17072;BME280;7731;50.720;6.912;2023-12-14T08:51:29;100050.84;;;5.54;100.00
17072;BME280;7731;50.720;6.912;2023-12-14T08:53:59;100057.22;;;5.68;100.00
17072;BME280;7731;50.720;6.912;2023-12-14T08:56:29;100060.84;;;5.61;100.00
17072;BME280;7731;50.720;6.912;2023-12-14T08:59:03;100075.25;;;5.33;100.00
17072;BME280;7731;50.720;6.912;2023-12-14T09:01:36;100076.47;;;5.50;100.00
17072;BME280;7731;50.720;6.912;2023-12-14T09:04:07;100082.75;;;5.66;100.00
17072;BME280;7731;50.720;6.912;2023-12-14T09:06:37;100090.63;;;5.59;100.00
17072;BME280;7731;50.720;6.912;2023-12-14T09:09:09;100095.53;;;5.65;100.00
17072;BME280;7731;50.720;6.912;2023-12-14T09:11:40;100105.94;;;5.29;100.00
17072;BME280;7731;50.720;6.912;2023-12-14T09:14:13;100111.91;;;5.28;100.00
17072;BME280;7731;50.720;6.912;2023-12-14T09:16:45;100114.34;;;5.01;100.00
17072;BME280;7731;50.720;6.912;2023-12-14T09:19:16;100118.00;;;4.91;100.00
17072;BME280;7731;50.720;6.912;2023-12-14T09:21:46;100127.06;;;4.68;100.00
17072;BME280;7731;50.720;6.912;2023-12-14T09:24:17;100134.69;;;4.68;100.00
17072;BME280;7731;50.720;6.912;2023-12-14T09:26:47;100138.09;;;4.69;100.00
17072;BME280;7731;50.720;6.912;2023-12-14T09:29:23;100139.16;;;4.93;100.00
17072;BME280;7731;50.720;6.912;2023-12-14T09:31:53;100142.81;;;5.15;100.00
17072;BME280;7731;50.720;6.912;2023-12-14T09:34:24;100149.56;;;5.16;100.00
17072;BME280;7731;50.720;6.912;2023-12-14T09:36:54;100150.22;;;4.92;100.00
17072;BME280;7731;50.720;6.912;2023-12-14T09:39:24;100149.25;;;4.96;100.00
17072;BME280;7731;50.720;6.912;2023-12-14T09:42:03;100159.47;;;4.94;100.00
17072;BME280;7731;50.720;6.912;2023-12-14T09:44:38;100171.81;;;4.77;100.00
17072;BME280;7731;50.720;6.912;2023-12-14T09:47:10;100165.66;;;4.86;100.00
17072;BME280;7731;50.720;6.912;2023-12-14T09:49:42;100162.28;;;4.83;100.00
17072;BME280;7731;50.720;6.912;2023-12-14T09:52:13;100156.03;;;4.97;100.00
17072;BME280;7731;50.720;6.912;2023-12-14T09:54:43;100168.91;;;4.91;100.00
17072;BME280;7731;50.720;6.912;2023-12-14T09:57:13;100167.88;;;4.98;100.00
17072;BME280;7731;50.720;6.912;2023-12-14T09:59:54;100167.63;;;4.74;100.00
17072;BME280;7731;50.720;6.912;2023-12-14T10:02:26;100173.44;;;5.12;100.00
17072;BME280;7731;50.720;6.912;2023-12-14T10:04:57;100185.91;;;4.90;100.00
17072;BME280;7731;50.720;6.912;2023-12-14T10:07:27;100186.72;;;4.91;100.00
17072;BME280;7731;50.720;6.912;2023-12-14T10:10:10;100180.19;;;4.80;100.00
17072;BME280;7731;50.720;6.912;2023-12-14T10:12:52;100186.22;;;5.11;100.00
17072;BME280;7731;50.720;6.912;2023-12-14T10:15:26;100196.13;;;4.89;100.00
17072;BME280;7731;50.720;6.912;2023-12-14T10:17:59;100200.34;;;5.23;100.00
17072;BME280;7731;50.720;6.912;2023-12-14T10:20:29;100201.22;;;4.89;100.00
17072;BME280;7731;50.720;6.912;2023-12-14T10:23:00;100199.72;;;5.13;100.00
17072;BME280;7731;50.720;6.912;2023-12-14T10:25:35;100212.16;;;4.92;100.00
17072;BME280;7731;50.720;6.912;2023-12-14T10:28:05;100212.59;;;5.08;100.00
17072;BME280;7731;50.720;6.912;2023-12-14T10:30:39;100218.88;;;5.28;100.00
17072;BME280;7731;50.720;6.912;2023-12-14T10:33:10;100214.94;;;5.16;100.00
17072;BME280;7731;50.720;6.912;2023-12-14T10:35:42;100226.06;;;5.13;100.00
17072;BME280;7731;50.720;6.912;2023-12-14T10:38:17;100233.84;;;5.07;100.00
17072;BME280;7731;50.720;6.912;2023-12-14T10:40:48;100235.13;;;5.24;100.00
17072;BME280;7731;50.720;6.912;2023-12-14T10:43:21;100242.03;;;4.86;100.00
17072;BME280;7731;50.720;6.912;2023-12-14T10:46:15;100250.72;;;5.11;100.00
17072;BME280;7731;50.720;6.912;2023-12-14T10:48:49;100260.16;;;5.08;100.00
17072;BME280;7731;50.720;6.912;2023-12-14T10:51:22;100259.63;;;4.95;100.00
17072;BME280;7731;50.720;6.912;2023-12-14T10:53:54;100263.50;;;5.08;100.00
17072;BME280;7731;50.720;6.912;2023-12-14T10:56:25;100272.03;;;5.07;100.00
17072;BME280;7731;50.720;6.912;2023-12-14T10:58:57;100275.69;;;4.97;100.00
17072;BME280;7731;50.720;6.912;2023-12-14T11:01:33;100275.91;;;4.88;100.00
17072;BME280;7731;50.720;6.912;2023-12-14T11:04:07;100280.31;;;4.81;100.00
17072;BME280;7731;50.720;6.912;2023-12-14T11:06:40;100280.16;;;4.87;100.00
17072;BME280;7731;50.720;6.912;2023-12-14T11:09:18;100274.66;;;4.68;100.00
17072;BME280;7731;50.720;6.912;2023-12-14T11:11:57;100271.06;;;5.11;100.00
17072;BME280;7731;50.720;6.912;2023-12-14T11:14:28;100280.63;;;5.03;100.00
17072;BME280;7731;50.720;6.912;2023-12-14T11:17:06;100279.03;;;5.33;100.00
17072;BME280;7731;50.720;6.912;2023-12-14T11:19:40;100288.91;;;5.46;100.00
17072;BME280;7731;50.720;6.912;2023-12-14T11:22:24;100282.59;;;5.61;100.00
17072;BME280;7731;50.720;6.912;2023-12-14T11:24:55;100286.00;;;5.25;100.00
17072;BME280;7731;50.720;6.912;2023-12-14T11:27:30;100291.09;;;5.60;100.00
17072;BME280;7731;50.720;6.912;2023-12-14T11:30:04;100292.78;;;5.61;100.00
17072;BME280;7731;50.720;6.912;2023-12-14T11:32:40;100297.97;;;5.58;100.00
17072;BME280;7731;50.720;6.912;2023-12-14T11:35:10;100298.94;;;5.83;100.00
17072;BME280;7731;50.720;6.912;2023-12-14T11:37:41;100300.72;;;5.81;100.00
17072;BME280;7731;50.720;6.912;2023-12-14T11:40:14;100313.75;;;5.70;100.00
17072;BME280;7731;50.720;6.912;2023-12-14T11:42:58;100316.66;;;5.57;100.00
17072;BME280;7731;50.720;6.912;2023-12-14T11:45:29;100321.53;;;5.33;100.00
17072;BME280;7731;50.720;6.912;2023-12-14T11:48:03;100322.59;;;5.23;100.00
17072;BME280;7731;50.720;6.912;2023-12-14T11:50:34;100333.16;;;5.42;100.00
17072;BME280;7731;50.720;6.912;2023-12-14T11:53:07;100323.59;;;5.51;100.00
17072;BME280;7731;50.720;6.912;2023-12-14T11:55:41;100331.38;;;5.47;100.00
17072;BME280;7731;50.720;6.912;2023-12-14T11:58:13;100330.66;;;5.40;100.00
17072;BME280;7731;50.720;6.912;2023-12-14T12:00:44;100331.59;;;5.38;100.00
17072;BME280;7731;50.720;6.912;2023-12-14T12:03:19;100331.66;;;5.34;100.00
17072;BME280;7731;50.720;6.912;2023-12-14T12:05:51;100333.94;;;5.45;100.00
17072;BME280;7731;50.720;6.912;2023-12-14T12:08:24;100339.19;;;5.39;100.00
17072;BME280;7731;50.720;6.912;2023-12-14T12:10:57;100335.91;;;5.34;100.00
17072;BME280;7731;50.720;6.912;2023-12-14T12:13:27;100342.84;;;5.29;100.00
17072;BME280;7731;50.720;6.912;2023-12-14T12:15:58;100335.19;;;5.29;100.00
17072;BME280;7731;50.720;6.912;2023-12-14T12:18:31;100332.94;;;5.16;100.00
17072;BME280;7731;50.720;6.912;2023-12-14T12:21:07;100344.22;;;5.42;100.00
17072;BME280;7731;50.720;6.912;2023-12-14T12:23:37;100343.09;;;5.52;100.00
17072;BME280;7731;50.720;6.912;2023-12-14T12:26:11;100335.38;;;5.55;100.00
17072;BME280;7731;50.720;6.912;2023-12-14T12:28:42;100348.91;;;5.23;100.00
17072;BME280;7731;50.720;6.912;2023-12-14T12:31:16;100343.78;;;5.25;100.00
17072;BME280;7731;50.720;6.912;2023-12-14T12:33:52;100349.13;;;5.14;100.00
17072;BME280;7731;50.720;6.912;2023-12-14T12:36:22;100349.94;;;5.14;100.00
17072;BME280;7731;50.720;6.912;2023-12-14T12:38:54;100346.25;;;5.62;100.00
17072;BME280;7731;50.720;6.912;2023-12-14T12:41:24;100349.78;;;5.22;100.00
17072;BME280;7731;50.720;6.912;2023-12-14T12:43:55;100358.56;;;5.10;100.00
17072;BME280;7731;50.720;6.912;2023-12-14T12:46:26;100351.63;;;5.15;100.00
17072;BME280;7731;50.720;6.912;2023-12-14T12:49:00;100353.53;;;5.07;100.00
17072;BME280;7731;50.720;6.912;2023-12-14T12:51:32;100351.78;;;5.09;100.00
17072;BME280;7731;50.720;6.912;2023-12-14T12:54:02;100345.28;;;5.33;100.00
17072;BME280;7731;50.720;6.912;2023-12-14T12:56:40;100349.47;;;5.36;100.00
17072;BME280;7731;50.720;6.912;2023-12-14T12:59:10;100365.09;;;5.21;100.00
17072;BME280;7731;50.720;6.912;2023-12-14T13:01:44;100373.59;;;5.21;100.00
17072;BME280;7731;50.720;6.912;2023-12-14T13:04:23;100371.44;;;5.40;100.00
17072;BME280;7731;50.720;6.912;2023-12-14T13:06:56;100371.78;;;5.25;100.00
17072;BME280;7731;50.720;6.912;2023-12-14T13:09:29;100378.44;;;5.32;100.00
17072;BME280;7731;50.720;6.912;2023-12-14T13:12:00;100387.41;;;5.47;100.00
17072;BME280;7731;50.720;6.912;2023-12-14T13:14:31;100383.78;;;5.55;100.00
17072;BME280;7731;50.720;6.912;2023-12-14T13:17:02;100390.97;;;5.40;100.00
17072;BME280;7731;50.720;6.912;2023-12-14T13:19:35;100388.69;;;5.29;100.00
17072;BME280;7731;50.720;6.912;2023-12-14T13:22:05;100393.22;;;5.16;100.00
17072;BME280;7731;50.720;6.912;2023-12-14T13:24:39;100399.38;;;5.07;100.00
17072;BME280;7731;50.720;6.912;2023-12-14T13:27:09;100399.44;;;5.04;100.00
17072;BME280;7731;50.720;6.912;2023-12-14T13:29:39;100399.66;;;4.95;100.00
17072;BME280;7731;50.720;6.912;2023-12-14T13:32:11;100402.56;;;5.15;100.00